createdAt,value
2022-12-27T00:02:10.104Z,92.90
2022-12-27T00:04:37.921Z,93.00
2022-12-27T00:07:05.732Z,92.90
2022-12-27T00:09:33.895Z,92.90
2022-12-27T00:12:01.616Z,92.90
2022-12-27T00:14:30.699Z,92.90
2022-12-27T00:16:58.478Z,92.90
2022-12-27T00:19:26.207Z,92.90
2022-12-27T00:21:53.901Z,92.90
2022-12-27T00:24:21.724Z,92.80
2022-12-27T00:26:49.487Z,92.90
2022-12-27T00:29:17.230Z,92.90
2022-12-27T00:31:46.336Z,92.90
2022-12-27T00:34:14.092Z,92.90
2022-12-27T00:36:41.955Z,92.90
2022-12-27T00:39:11.629Z,92.90
2022-12-27T00:41:40.373Z,92.90
2022-12-27T00:44:08.148Z,92.90
2022-12-27T00:46:35.981Z,92.90
2022-12-27T00:49:05.196Z,92.90
2022-12-27T00:51:32.929Z,92.90
2022-12-27T00:54:00.689Z,92.90
2022-12-27T00:56:30.844Z,92.90
2022-12-27T00:59:00.388Z,92.90
2022-12-27T01:01:30.483Z,92.90
2022-12-27T01:03:59.023Z,92.90
2022-12-27T01:06:32.405Z,92.90
2022-12-27T01:09:00.947Z,92.90
2022-12-27T01:11:29.427Z,93.00
2022-12-27T01:13:57.877Z,93.00
2022-12-27T01:16:26.657Z,92.90
2022-12-27T01:18:55.397Z,92.90
2022-12-27T01:21:25.945Z,92.90
2022-12-27T01:23:55.310Z,92.90
2022-12-27T01:26:25.087Z,92.90
2022-12-27T01:28:53.897Z,92.90
2022-12-27T01:31:24.591Z,92.90
2022-12-27T01:33:55.690Z,92.90
2022-12-27T01:36:25.282Z,92.90
2022-12-27T01:38:53.176Z,92.90
2022-12-27T01:41:41.689Z,92.90
2022-12-27T01:44:53.278Z,93.00
2022-12-27T01:47:28.115Z,93.00
2022-12-27T01:50:01.920Z,93.00
2022-12-27T01:52:39.479Z,93.00
2022-12-27T01:55:14.128Z,93.00
2022-12-27T01:57:43.450Z,93.00
2022-12-27T02:00:12.545Z,93.10
2022-12-27T02:02:41.299Z,93.10
2022-12-27T02:05:11.410Z,93.10
2022-12-27T02:07:48.649Z,93.10
2022-12-27T02:10:17.114Z,93.20
2022-12-27T02:12:46.151Z,93.00
2022-12-27T02:15:14.115Z,92.90
2022-12-27T02:17:41.880Z,92.80
2022-12-27T02:20:13.792Z,92.90
2022-12-27T02:23:33.463Z,93.00
2022-12-27T02:26:46.697Z,92.90
2022-12-27T02:29:34.514Z,92.90
2022-12-27T02:32:07.842Z,92.80
2022-12-27T02:34:43.991Z,92.80
2022-12-27T02:37:14.099Z,92.80
2022-12-27T02:39:46.256Z,92.80
2022-12-27T02:42:42.147Z,92.80
2022-12-27T02:45:38.564Z,92.90
2022-12-27T02:48:28.888Z,92.90
2022-12-27T02:51:32.703Z,93.00
2022-12-27T02:54:12.750Z,92.90
2022-12-27T02:57:05.415Z,92.90
2022-12-27T03:00:03.022Z,93.00
2022-12-27T03:02:58.316Z,93.00
2022-12-27T03:05:36.600Z,93.00
2022-12-27T03:08:12.049Z,92.90
2022-12-27T03:11:05.958Z,92.90
2022-12-27T03:13:58.440Z,92.80
2022-12-27T03:16:30.898Z,92.80
2022-12-27T03:19:07.338Z,92.80
2022-12-27T03:21:55.417Z,92.80
2022-12-27T03:24:45.238Z,92.80
2022-12-27T03:27:18.175Z,92.80
2022-12-27T03:30:10.716Z,92.90
2022-12-27T03:33:04.064Z,92.90
2022-12-27T03:35:39.529Z,93.00
2022-12-27T03:38:09.423Z,93.00
2022-12-27T03:41:07.942Z,93.00
2022-12-27T03:43:36.693Z,93.10
2022-12-27T03:46:34.663Z,93.10
2022-12-27T03:49:15.980Z,93.10
2022-12-27T03:51:50.878Z,93.10
2022-12-27T03:54:26.347Z,93.10
2022-12-27T03:56:58.915Z,93.10
2022-12-27T03:59:26.890Z,93.10
2022-12-27T04:01:55.202Z,93.10
2022-12-27T04:04:23.176Z,93.10
2022-12-27T04:06:52.293Z,93.20
2022-12-27T04:09:37.730Z,93.20
2022-12-27T04:12:23.691Z,93.20
2022-12-27T04:15:09.234Z,93.20
2022-12-27T04:17:54.598Z,93.30
2022-12-27T04:20:40.093Z,93.20
2022-12-27T04:23:27.147Z,93.10
2022-12-27T04:26:12.676Z,93.10
2022-12-27T04:28:58.357Z,93.10
2022-12-27T04:31:43.469Z,93.10
2022-12-27T04:34:28.723Z,93.10
2022-12-27T04:36:56.510Z,93.10
2022-12-27T04:39:25.625Z,93.10
2022-12-27T04:42:11.044Z,93.10
2022-12-27T04:44:58.743Z,93.20
2022-12-27T04:47:44.160Z,93.20
2022-12-27T04:50:42.655Z,93.10
2022-12-27T04:53:29.644Z,93.10
2022-12-27T04:55:59.111Z,93.10
2022-12-27T04:58:27.128Z,93.20
2022-12-27T05:01:15.897Z,93.20
2022-12-27T05:03:44.778Z,93.20
2022-12-27T05:06:12.676Z,93.20
2022-12-27T05:08:57.881Z,93.30
2022-12-27T05:11:45.192Z,93.30
2022-12-27T05:14:15.831Z,93.30
2022-12-27T05:16:44.964Z,93.20
2022-12-27T05:19:15.411Z,93.30
2022-12-27T05:22:05.592Z,93.30
2022-12-27T05:24:51.935Z,93.30
2022-12-27T05:27:21.016Z,93.30
2022-12-27T05:29:48.868Z,93.30
2022-12-27T05:32:16.624Z,93.30
2022-12-27T05:34:44.361Z,93.30
2022-12-27T05:37:13.118Z,93.30
2022-12-27T05:39:41.103Z,93.30
2022-12-27T05:42:08.866Z,93.30
2022-12-27T05:44:37.958Z,93.40
2022-12-27T05:47:05.846Z,93.40
2022-12-27T05:49:33.556Z,93.30
2022-12-27T05:52:01.372Z,93.20
2022-12-27T05:54:29.130Z,93.10
2022-12-27T05:56:56.854Z,93.10
2022-12-27T05:59:24.568Z,93.00
2022-12-27T06:01:54.147Z,93.00
2022-12-27T06:04:21.964Z,93.00
2022-12-27T06:06:49.646Z,93.00
2022-12-27T06:09:17.420Z,93.00
2022-12-27T06:11:45.254Z,93.00
2022-12-27T06:14:14.105Z,92.90
2022-12-27T06:16:41.838Z,92.90
2022-12-27T06:19:10.988Z,92.90
2022-12-27T06:21:38.748Z,92.80
2022-12-27T06:24:07.133Z,92.80
2022-12-27T06:26:34.887Z,92.90
2022-12-27T06:29:02.750Z,92.90
2022-12-27T06:31:30.664Z,92.90
2022-12-27T06:33:58.803Z,93.00
2022-12-27T06:36:30.069Z,93.10
2022-12-27T06:38:58.304Z,93.20
2022-12-27T06:41:26.101Z,93.30
2022-12-27T06:43:56.285Z,93.30
2022-12-27T06:46:24.376Z,93.30
2022-12-27T06:48:52.459Z,93.30
2022-12-27T06:51:21.873Z,93.30
2022-12-27T06:53:51.360Z,93.30
2022-12-27T06:56:20.289Z,93.30
2022-12-27T06:58:49.047Z,93.20
2022-12-27T07:01:19.866Z,93.10
2022-12-27T07:03:50.665Z,93.00
2022-12-27T07:06:19.296Z,93.00
2022-12-27T07:08:47.133Z,93.00
2022-12-27T07:11:17.072Z,93.10
2022-12-27T07:13:46.887Z,93.10
2022-12-27T07:16:17.228Z,93.10
2022-12-27T07:18:45.265Z,93.10
2022-12-27T07:21:16.287Z,93.10
2022-12-27T07:23:44.522Z,93.10
2022-12-27T07:26:13.537Z,93.10
2022-12-27T07:28:42.894Z,93.00
2022-12-27T07:31:12.565Z,92.90
2022-12-27T07:33:40.799Z,92.80
2022-12-27T07:36:12.173Z,92.90
2022-12-27T07:38:39.918Z,92.80
2022-12-27T07:41:07.733Z,92.80
2022-12-27T07:43:36.355Z,92.80
2022-12-27T07:46:07.350Z,92.90
2022-12-27T07:48:35.252Z,92.90
2022-12-27T07:51:03.616Z,92.90
2022-12-27T07:53:31.384Z,92.90
2022-12-27T07:55:59.369Z,92.90
2022-12-27T07:58:27.094Z,92.90
2022-12-27T08:00:54.873Z,92.90
2022-12-27T08:03:24.184Z,92.90
2022-12-27T08:05:53.426Z,92.90
2022-12-27T08:08:36.693Z,92.90
2022-12-27T08:11:05.842Z,92.90
2022-12-27T08:13:34.347Z,92.90
2022-12-27T08:16:02.256Z,92.90
2022-12-27T08:18:31.675Z,92.90
2022-12-27T08:20:59.404Z,92.90
2022-12-27T08:23:27.188Z,92.90
2022-12-27T08:25:55.370Z,92.90
2022-12-27T08:28:23.110Z,92.80
2022-12-27T08:30:50.964Z,92.80
2022-12-27T08:33:19.266Z,92.80
2022-12-27T08:35:53.136Z,92.80
2022-12-27T08:38:21.271Z,92.80
2022-12-27T08:40:49.057Z,92.90
2022-12-27T08:43:17.005Z,93.00
2022-12-27T08:45:44.807Z,93.00
2022-12-27T08:48:12.713Z,93.00
2022-12-27T08:50:40.484Z,93.00
2022-12-27T08:53:10.764Z,93.00
2022-12-27T08:55:44.007Z,93.10
2022-12-27T08:58:16.309Z,93.00
2022-12-27T09:00:44.386Z,93.00
2022-12-27T09:03:12.264Z,92.90
2022-12-27T09:05:42.181Z,92.90
2022-12-27T09:08:14.244Z,92.90
2022-12-27T09:10:44.056Z,92.90
2022-12-27T09:13:11.775Z,92.90
2022-12-27T09:15:39.748Z,93.00
2022-12-27T09:18:07.933Z,93.00
2022-12-27T09:20:35.758Z,93.00
2022-12-27T09:23:07.736Z,93.00
2022-12-27T09:25:36.903Z,93.00
2022-12-27T09:28:05.127Z,92.90
2022-12-27T09:30:32.876Z,92.90
2022-12-27T09:33:00.609Z,92.90
2022-12-27T09:35:28.353Z,92.90
2022-12-27T09:37:57.851Z,92.90
2022-12-27T09:40:27.600Z,93.00
2022-12-27T09:43:19.221Z,93.00
2022-12-27T09:45:55.378Z,93.10
2022-12-27T09:48:33.434Z,93.00
2022-12-27T09:51:07.296Z,93.00
2022-12-27T09:53:42.730Z,93.00
2022-12-27T09:56:13.854Z,93.00
2022-12-27T09:58:48.828Z,93.00
2022-12-27T10:01:21.992Z,93.00
2022-12-27T10:03:50.102Z,93.00
2022-12-27T10:06:34.317Z,93.00
2022-12-27T10:09:10.322Z,93.00
2022-12-27T10:11:44.943Z,93.00
2022-12-27T10:14:24.703Z,93.00
2022-12-27T10:16:59.246Z,93.10
2022-12-27T10:19:35.448Z,93.10
2022-12-27T10:22:13.863Z,93.10
2022-12-27T10:24:46.414Z,93.00
2022-12-27T10:27:15.851Z,93.10
2022-12-27T10:29:44.955Z,93.10
2022-12-27T10:32:15.262Z,93.10
2022-12-27T10:34:43.294Z,93.10
2022-12-27T10:37:15.391Z,93.10
2022-12-27T10:39:43.879Z,93.10
2022-12-27T10:42:26.802Z,93.10
2022-12-27T10:45:33.709Z,93.10
2022-12-27T10:48:16.323Z,93.20
2022-12-27T10:50:50.693Z,93.20
2022-12-27T10:53:35.264Z,93.30
2022-12-27T10:56:17.862Z,93.30
2022-12-27T10:58:51.557Z,93.70
2022-12-27T11:01:27.118Z,93.40
2022-12-27T11:04:20.928Z,93.30
2022-12-27T11:06:51.516Z,93.30
2022-12-27T11:09:31.404Z,93.20
2022-12-27T11:12:20.444Z,93.30
2022-12-27T11:14:59.449Z,93.30
2022-12-27T11:17:30.877Z,93.30
2022-12-27T11:20:00.032Z,93.30
2022-12-27T11:22:28.343Z,93.30
2022-12-27T11:24:59.972Z,93.20
2022-12-27T11:27:29.812Z,93.30
2022-12-27T11:29:59.753Z,93.30
2022-12-27T11:32:28.874Z,93.30
2022-12-27T11:34:57.603Z,93.20
2022-12-27T11:37:28.098Z,93.30
2022-12-27T11:40:11.365Z,93.20
2022-12-27T11:42:44.067Z,93.30
2022-12-27T11:45:15.943Z,93.20
2022-12-27T11:47:50.455Z,93.30
2022-12-27T11:50:41.413Z,93.20
2022-12-27T11:53:20.879Z,93.20
2022-12-27T11:56:14.969Z,93.20
2022-12-27T11:59:22.610Z,93.10
2022-12-27T12:02:14.255Z,93.10
2022-12-27T12:05:22.253Z,93.20
2022-12-27T12:08:05.101Z,93.20
2022-12-27T12:10:40.874Z,93.10
2022-12-27T12:13:24.490Z,93.20
2022-12-27T12:16:28.286Z,93.20
2022-12-27T12:19:08.826Z,93.20
2022-12-27T12:21:47.300Z,93.20
2022-12-27T12:24:37.286Z,93.20
2022-12-27T12:27:22.196Z,93.10
2022-12-27T12:30:27.030Z,93.10
2022-12-27T12:33:17.598Z,93.20
2022-12-27T12:35:58.234Z,93.30
2022-12-27T12:38:34.907Z,93.30
2022-12-27T12:41:38.230Z,93.20
2022-12-27T12:44:41.113Z,93.30
2022-12-27T12:47:19.000Z,93.30
2022-12-27T12:50:00.662Z,93.30
2022-12-27T12:52:54.879Z,93.20
2022-12-27T12:55:38.491Z,93.10
2022-12-27T12:58:18.500Z,93.10
2022-12-27T13:01:05.149Z,93.10
2022-12-27T13:03:54.479Z,93.10
2022-12-27T13:06:57.288Z,93.10
2022-12-27T13:09:38.771Z,93.10
2022-12-27T13:12:12.848Z,93.10
2022-12-27T13:15:16.593Z,93.00
2022-12-27T13:17:55.767Z,93.10
2022-12-27T13:20:51.584Z,93.00
2022-12-27T13:23:31.505Z,93.00
2022-12-27T13:26:08.196Z,93.00
2022-12-27T13:28:44.971Z,93.00
2022-12-27T13:31:25.609Z,93.00
2022-12-27T13:34:08.279Z,93.00
2022-12-27T13:36:44.021Z,93.00
2022-12-27T13:39:28.398Z,93.10
2022-12-27T13:42:22.602Z,93.10
2022-12-27T13:45:04.759Z,93.10
2022-12-27T13:47:58.724Z,93.10
2022-12-27T13:50:54.575Z,93.00
2022-12-27T13:53:52.212Z,93.00
2022-12-27T13:56:53.370Z,93.00
2022-12-27T13:59:40.739Z,93.00
2022-12-27T14:02:29.721Z,92.90
2022-12-27T14:05:47.005Z,93.00
2022-12-27T14:08:23.186Z,92.90
2022-12-27T14:10:58.596Z,93.00
2022-12-27T14:13:34.257Z,93.00
2022-12-27T14:16:27.820Z,93.00
2022-12-27T14:19:13.864Z,93.00
2022-12-27T14:21:58.704Z,92.90
2022-12-27T14:25:02.457Z,92.90
2022-12-27T14:28:03.941Z,93.00
2022-12-27T14:31:17.440Z,93.00
2022-12-27T14:34:15.264Z,92.90
2022-12-27T14:37:26.014Z,92.90
2022-12-27T14:40:35.827Z,92.80
2022-12-27T14:43:35.928Z,92.80
2022-12-27T14:46:25.902Z,92.80
2022-12-27T14:49:33.995Z,92.80
2022-12-27T14:52:43.476Z,92.90
2022-12-27T14:55:47.867Z,92.90
2022-12-27T14:58:43.378Z,92.90
2022-12-27T15:01:21.763Z,92.90
2022-12-27T15:04:06.175Z,92.90
2022-12-27T15:06:58.056Z,92.90
2022-12-27T15:09:34.726Z,92.90
2022-12-27T15:12:25.983Z,92.90
2022-12-27T15:15:18.924Z,92.90
2022-12-27T15:18:05.937Z,92.90
2022-12-27T15:20:48.185Z,93.00
2022-12-27T15:23:28.251Z,93.00
2022-12-27T15:26:09.716Z,93.00
2022-12-27T15:29:03.125Z,93.00
2022-12-27T15:31:38.742Z,93.00
2022-12-27T15:34:24.172Z,93.00
2022-12-27T15:36:59.452Z,93.00
2022-12-27T15:39:49.812Z,93.00
2022-12-27T15:42:48.389Z,93.00
2022-12-27T15:45:34.111Z,93.00
2022-12-27T15:48:32.265Z,93.00
2022-12-27T15:51:07.188Z,92.90
2022-12-27T15:53:49.243Z,92.90
2022-12-27T15:56:40.830Z,92.90
2022-12-27T15:59:46.622Z,92.90
2022-12-27T16:02:36.829Z,92.90
2022-12-27T16:05:33.551Z,92.90
2022-12-27T16:08:30.081Z,92.90
2022-12-27T16:10:59.148Z,92.90
2022-12-27T16:13:46.831Z,92.90
2022-12-27T16:16:57.297Z,92.80
2022-12-27T16:19:44.079Z,92.80
2022-12-27T16:22:26.260Z,92.80
2022-12-27T16:24:54.291Z,92.80
2022-12-27T16:27:30.008Z,92.80
2022-12-27T16:29:59.575Z,92.80
2022-12-27T16:32:29.135Z,92.80
2022-12-27T16:35:12.957Z,92.80
2022-12-27T16:37:45.901Z,92.80
2022-12-27T16:40:41.040Z,92.80
2022-12-27T16:43:49.373Z,92.80
2022-12-27T16:46:33.868Z,92.80
2022-12-27T16:49:23.150Z,92.70
2022-12-27T16:52:04.213Z,92.70
2022-12-27T16:54:46.183Z,92.70
2022-12-27T16:57:34.215Z,92.70
2022-12-27T17:00:05.380Z,92.60
2022-12-27T17:02:41.816Z,92.60
2022-12-27T17:05:36.912Z,92.60
2022-12-27T17:08:15.743Z,92.70
2022-12-27T17:11:24.797Z,92.70
2022-12-27T17:13:56.994Z,92.60
2022-12-27T17:16:27.686Z,93.00
2022-12-27T17:19:00.572Z,92.70
2022-12-27T17:21:31.035Z,92.70
2022-12-27T17:24:01.311Z,92.70
2022-12-27T17:26:49.165Z,92.70
2022-12-27T17:29:36.923Z,92.70
2022-12-27T17:32:16.926Z,92.70
2022-12-27T17:34:54.186Z,92.80
2022-12-27T17:37:27.922Z,92.90
2022-12-27T17:40:12.814Z,93.00
2022-12-27T17:43:20.919Z,93.10
2022-12-27T17:45:54.741Z,93.10
2022-12-27T17:48:28.704Z,93.10
2022-12-27T17:51:02.876Z,93.10
2022-12-27T17:53:48.183Z,93.10
2022-12-27T17:56:39.276Z,93.10
2022-12-27T17:59:11.163Z,93.10
2022-12-27T18:01:45.574Z,93.10
2022-12-27T18:04:23.051Z,93.00
2022-12-27T18:06:56.351Z,92.90
2022-12-27T18:09:41.670Z,92.90
2022-12-27T18:12:18.598Z,93.30
2022-12-27T18:14:50.019Z,92.90
2022-12-27T18:17:29.025Z,93.00
2022-12-27T18:19:57.299Z,93.00
2022-12-27T18:22:27.657Z,93.10
2022-12-27T18:24:55.444Z,93.10
2022-12-27T18:27:26.096Z,93.10
2022-12-27T18:29:54.106Z,93.10
2022-12-27T18:32:23.667Z,93.10
2022-12-27T18:34:55.533Z,93.10
2022-12-27T18:37:26.162Z,93.10
2022-12-27T18:39:57.058Z,93.10
2022-12-27T18:42:31.945Z,93.10
2022-12-27T18:45:04.335Z,93.20
2022-12-27T18:47:38.760Z,93.20
2022-12-27T18:50:16.565Z,93.20
2022-12-27T18:52:52.959Z,93.30
2022-12-27T18:55:26.712Z,93.30
2022-12-27T18:58:03.263Z,93.20
2022-12-27T19:00:30.966Z,93.10
2022-12-27T19:03:14.357Z,93.00
2022-12-27T19:05:58.922Z,93.00
2022-12-27T19:08:32.609Z,92.90
2022-12-27T19:11:00.510Z,92.90
2022-12-27T19:13:31.307Z,93.00
2022-12-27T19:15:59.957Z,93.00
2022-12-27T19:18:30.602Z,93.00
2022-12-27T19:21:00.410Z,93.00
2022-12-27T19:23:34.062Z,93.00
2022-12-27T19:26:08.810Z,93.10
2022-12-27T19:28:36.879Z,93.10
2022-12-27T19:31:18.050Z,93.10
2022-12-27T19:33:51.479Z,93.10
2022-12-27T19:36:25.882Z,93.10
2022-12-27T19:38:57.415Z,93.00
2022-12-27T19:41:25.652Z,92.90
2022-12-27T19:43:55.220Z,92.90
2022-12-27T19:46:30.485Z,92.80
2022-12-27T19:51:46.671Z,92.70
2022-12-27T19:54:18.787Z,92.70
2022-12-27T19:56:47.018Z,92.70
2022-12-27T19:59:17.033Z,92.70
2022-12-27T20:01:45.570Z,92.80
2022-12-27T20:04:13.856Z,92.80
2022-12-27T20:06:42.085Z,92.80
2022-12-27T20:09:14.079Z,92.90
2022-12-27T20:11:43.443Z,92.90
2022-12-27T20:14:11.582Z,92.90
2022-12-27T20:16:39.646Z,92.90
2022-12-27T20:19:07.467Z,92.90
2022-12-27T20:21:35.232Z,92.90
2022-12-27T20:24:03.246Z,92.80
2022-12-27T20:26:30.999Z,92.80
2022-12-27T20:29:00.644Z,92.70
2022-12-27T20:31:28.445Z,92.80
2022-12-27T20:33:57.117Z,92.80
2022-12-27T20:36:25.654Z,92.80
2022-12-27T20:38:53.474Z,92.80
2022-12-27T20:41:22.911Z,92.90
2022-12-27T20:43:55.635Z,92.80
2022-12-27T20:46:25.468Z,92.90
2022-12-27T20:48:53.755Z,92.90
2022-12-27T20:51:24.238Z,92.90
2022-12-27T20:53:56.539Z,92.90
2022-12-27T20:56:25.436Z,92.90
2022-12-27T20:58:53.464Z,92.90
2022-12-27T21:01:25.047Z,92.90
2022-12-27T21:03:53.029Z,92.90
2022-12-27T21:06:22.554Z,92.90
2022-12-27T21:08:56.593Z,92.90
2022-12-27T21:11:28.025Z,93.30
2022-12-27T21:13:56.368Z,93.00
2022-12-27T21:16:28.434Z,93.10
2022-12-27T21:18:57.298Z,93.20
2022-12-27T21:21:28.594Z,93.10
2022-12-27T21:23:56.695Z,93.10
2022-12-27T21:26:26.226Z,93.10
2022-12-27T21:28:54.248Z,93.10
2022-12-27T21:31:22.569Z,93.10
2022-12-27T21:33:51.744Z,93.10
2022-12-27T21:36:21.464Z,93.10
2022-12-27T21:38:50.111Z,93.10
2022-12-27T21:41:19.374Z,93.10
2022-12-27T21:43:48.886Z,93.10
2022-12-27T21:46:18.498Z,93.10
2022-12-27T21:48:47.038Z,93.10
2022-12-27T21:51:18.962Z,93.10
2022-12-27T21:53:47.414Z,93.10
2022-12-27T21:56:16.881Z,93.20
2022-12-27T21:58:45.929Z,93.10
2022-12-27T22:01:15.680Z,93.10
2022-12-27T22:03:45.498Z,93.10
2022-12-27T22:06:16.887Z,93.10
2022-12-27T22:08:46.205Z,93.10
2022-12-27T22:11:14.746Z,93.10
2022-12-27T22:13:43.200Z,93.20
2022-12-27T22:16:15.239Z,93.20
2022-12-27T22:18:45.062Z,93.20
2022-12-27T22:21:14.651Z,93.20
2022-12-27T22:23:45.192Z,93.20
2022-12-27T22:26:14.842Z,93.20
2022-12-27T22:28:42.951Z,93.30
2022-12-27T22:31:13.522Z,93.30
2022-12-27T22:33:41.447Z,93.30
2022-12-27T22:36:11.907Z,93.30
2022-12-27T22:38:40.766Z,93.30
2022-12-27T22:41:12.948Z,93.30
2022-12-27T22:43:41.209Z,93.60
2022-12-27T22:46:10.915Z,93.30
2022-12-27T22:48:38.825Z,93.30
2022-12-27T22:51:10.534Z,93.30
2022-12-27T22:53:38.285Z,93.30
2022-12-27T22:56:06.042Z,93.30
2022-12-27T22:58:35.090Z,93.30
2022-12-27T23:01:02.827Z,93.30
2022-12-27T23:03:30.531Z,93.30
2022-12-27T23:05:59.324Z,93.30
2022-12-27T23:08:27.221Z,93.40
2022-12-27T23:10:55.773Z,93.30
2022-12-27T23:13:24.780Z,93.40
2022-12-27T23:15:58.897Z,93.30
2022-12-27T23:18:27.211Z,93.30
2022-12-27T23:21:20.709Z,93.30
2022-12-27T23:23:44.116Z,93.40
2022-12-27T23:26:15.032Z,93.30
2022-12-27T23:28:45.591Z,93.30
2022-12-27T23:31:15.591Z,93.30
2022-12-27T23:33:44.746Z,93.30
2022-12-27T23:36:13.706Z,93.20
2022-12-27T23:38:41.527Z,93.30
2022-12-27T23:41:10.042Z,93.20
2022-12-27T23:43:52.336Z,93.30
2022-12-27T23:46:25.016Z,93.30
2022-12-27T23:48:53.538Z,93.30
2022-12-27T23:51:22.307Z,93.20
2022-12-27T23:53:50.172Z,93.20
2022-12-27T23:56:20.153Z,93.30
2022-12-27T23:58:48.883Z,93.30
